Time;durP1;ratioP1;P1;durP2;ratioP2;P2;SDS_P1;SDS_P2;PMS_P1;PMS_P2;Temp;Humidity;BMP_temperature;BMP_pressure;BME280_temperature;BME280_humidity;BME280_pressure;Samples;Min_cycle;Max_cycle;Signal;HPM_P1;HPM_P2
2020/12/25 00:01:22;;;;;;;13.63;12.23;;;5.50;99.90;;;;;;5069423;28;20498;-74
2020/12/25 00:03:47;;;;;;;13.63;12.20;;;5.50;99.90;;;;;;5069684;28;20525;-74
2020/12/25 00:06:13;;;;;;;12.87;11.67;;;5.50;99.90;;;;;;5070280;28;20258;-74
2020/12/25 00:08:39;;;;;;;13.03;11.83;;;5.50;99.90;;;;;;5069964;28;20191;-74
2020/12/25 00:11:04;;;;;;;13.73;11.83;;;5.50;99.90;;;;;;5075240;28;20197;-74
2020/12/25 00:13:30;;;;;;;13.50;12.20;;;5.50;99.90;;;;;;5054672;28;20812;-74
2020/12/25 00:15:56;;;;;;;17.00;10.70;;;5.50;99.90;;;;;;5072570;28;20187;-74
2020/12/25 00:18:22;;;;;;;13.90;11.47;;;5.50;99.90;;;;;;5069305;28;20222;-74
2020/12/25 00:20:51;;;;;;;13.13;9.87;;;5.50;99.90;;;;;;5074874;28;21197;-74
2020/12/25 00:23:17;;;;;;;11.13;10.00;;;5.50;99.90;;;;;;5068794;28;20191;-74
2020/12/25 00:25:42;;;;;;;10.40;9.50;;;5.50;99.90;;;;;;5072428;28;20484;-74
2020/12/25 00:28:08;;;;;;;11.27;10.17;;;5.50;99.90;;;;;;5056671;28;20197;-74
2020/12/25 00:30:34;;;;;;;10.10;9.13;;;5.50;99.90;;;;;;5069740;28;20190;-74
2020/12/25 00:32:59;;;;;;;10.13;9.07;;;5.50;99.90;;;;;;5069417;28;20219;-74
2020/12/25 00:35:25;;;;;;;9.83;8.30;;;5.60;99.90;;;;;;5064051;28;20171;-74
2020/12/25 00:37:50;;;;;;;9.63;8.10;;;5.60;99.90;;;;;;5054686;28;20183;-74
2020/12/25 00:40:16;;;;;;;8.60;7.80;;;5.60;99.90;;;;;;5071241;28;20237;-74
2020/12/25 00:42:41;;;;;;;9.37;8.47;;;5.50;99.90;;;;;;5068313;28;20199;-74
2020/12/25 00:45:07;;;;;;;10.20;8.20;;;5.50;99.90;;;;;;5054053;28;20318;-74
2020/12/25 00:47:32;;;;;;;13.77;9.00;;;5.50;99.90;;;;;;5068707;28;20195;-74
2020/12/25 00:49:58;;;;;;;10.40;9.33;;;5.50;99.90;;;;;;5061156;28;20589;-74
2020/12/25 00:52:26;;;;;;;13.77;10.07;;;5.50;99.90;;;;;;5069442;28;20251;-74
2020/12/25 00:54:52;;;;;;;10.10;9.00;;;5.50;99.90;;;;;;5052312;28;20232;-74
2020/12/25 00:57:18;;;;;;;9.50;8.60;;;5.50;99.90;;;;;;5067852;28;20928;-74
2020/12/25 00:59:44;;;;;;;9.33;8.10;;;5.50;99.90;;;;;;5068083;28;20222;-74
2020/12/25 01:02:10;;;;;;;10.20;8.50;;;5.50;99.90;;;;;;5068731;28;20477;-74
2020/12/25 01:04:35;;;;;;;14.80;8.83;;;5.50;99.90;;;;;;5072653;28;20191;-74
2020/12/25 01:07:08;;;;;;;10.10;8.60;;;5.50;99.90;;;;;;5069471;28;21156;-74
2020/12/25 01:09:34;;;;;;;12.10;8.23;;;5.50;99.90;;;;;;5069233;28;20195;-74
2020/12/25 01:12:00;;;;;;;11.73;8.10;;;5.50;99.90;;;;;;5050498;28;20442;-74
2020/12/25 01:14:27;;;;;;;8.70;7.50;;;5.50;99.90;;;;;;5071474;28;20478;-74
2020/12/25 01:16:54;;;;;;;9.03;7.87;;;5.50;99.90;;;;;;5050938;28;20448;-74
2020/12/25 01:19:21;;;;;;;14.73;8.20;;;5.50;99.90;;;;;;5078819;28;20483;-74
2020/12/25 01:21:47;;;;;;;10.20;9.20;;;5.50;99.90;;;;;;5052931;28;20792;-74
2020/12/25 01:24:12;;;;;;;8.83;8.07;;;5.40;99.90;;;;;;5052013;28;20433;-74
2020/12/25 01:26:38;;;;;;;8.63;7.73;;;5.30;99.90;;;;;;5055336;28;20190;-74
2020/12/25 01:29:03;;;;;;;9.67;8.77;;;5.30;99.90;;;;;;5051645;28;20184;-74
2020/12/25 01:31:30;;;;;;;12.53;8.60;;;5.30;99.90;;;;;;5073233;28;20207;-74
2020/12/25 01:33:55;;;;;;;8.03;7.23;;;5.30;99.90;;;;;;5073436;28;20184;-74
2020/12/25 01:36:21;;;;;;;10.50;9.10;;;5.30;99.90;;;;;;5073523;28;20496;-74
2020/12/25 01:38:47;;;;;;;10.00;7.10;;;5.30;99.90;;;;;;5074191;28;20578;-74
2020/12/25 01:41:12;;;;;;;8.50;7.47;;;5.30;99.90;;;;;;5075997;28;20194;-74
2020/12/25 01:43:38;;;;;;;8.60;7.80;;;5.30;99.90;;;;;;5057489;28;20194;-74
2020/12/25 01:46:04;;;;;;;7.83;7.13;;;5.30;99.90;;;;;;5074464;28;20191;-74
2020/12/25 01:48:29;;;;;;;9.27;7.40;;;5.20;99.90;;;;;;5056737;28;20186;-74
2020/12/25 01:50:55;;;;;;;9.07;7.70;;;5.20;99.90;;;;;;5063409;28;20823;-74
2020/12/25 01:53:22;;;;;;;11.00;7.60;;;5.10;99.90;;;;;;5074954;28;20184;-74
2020/12/25 01:55:49;;;;;;;9.37;7.00;;;5.10;99.90;;;;;;5071938;28;20437;-74
2020/12/25 01:58:17;;;;;;;9.73;7.40;;;5.00;99.90;;;;;;5073206;28;20472;-74
2020/12/25 02:00:46;;;;;;;10.87;7.33;;;4.90;99.90;;;;;;5053389;28;20542;-74
2020/12/25 02:03:14;;;;;;;7.23;6.63;;;4.90;99.90;;;;;;5072647;28;20425;-74
2020/12/25 02:05:41;;;;;;;9.30;7.20;;;4.90;99.90;;;;;;5077292;28;20436;-74
2020/12/25 02:08:06;;;;;;;10.13;9.13;;;4.80;99.90;;;;;;5077761;28;20437;-74
2020/12/25 02:10:33;;;;;;;10.70;7.70;;;4.80;99.90;;;;;;5071134;28;20937;-74
2020/12/25 02:12:59;;;;;;;11.67;8.07;;;4.80;99.90;;;;;;5072522;28;20253;-74
2020/12/25 02:15:25;;;;;;;7.30;6.47;;;4.80;99.90;;;;;;5070902;28;20527;-74
2020/12/25 02:17:50;;;;;;;9.70;8.00;;;4.80;99.90;;;;;;5053221;28;20532;-74
2020/12/25 02:20:16;;;;;;;8.20;6.40;;;4.80;99.90;;;;;;5078886;28;20219;-74
2020/12/25 02:22:42;;;;;;;7.83;6.90;;;4.80;99.90;;;;;;5070995;28;20584;-74
2020/12/25 02:25:08;;;;;;;8.70;6.23;;;4.80;99.90;;;;;;5071510;28;20216;-74
2020/12/25 02:27:33;;;;;;;9.10;6.20;;;4.70;99.90;;;;;;5052934;28;20195;-74
2020/12/25 02:29:59;;;;;;;8.57;6.07;;;4.70;99.90;;;;;;5070647;28;20184;-74
2020/12/25 02:32:25;;;;;;;6.97;6.27;;;4.70;99.90;;;;;;5071722;28;20509;-74
2020/12/25 02:34:50;;;;;;;5.53;4.97;;;4.60;99.90;;;;;;5072460;28;20198;-74
2020/12/25 02:37:16;;;;;;;10.63;5.70;;;4.60;99.90;;;;;;5052883;28;20183;-74
2020/12/25 02:39:41;;;;;;;6.43;4.60;;;4.60;99.90;;;;;;5071480;28;20215;-74
2020/12/25 02:42:11;;;;;;;9.20;4.83;;;4.50;99.90;;;;;;5072065;28;20202;-74
2020/12/25 02:44:36;;;;;;;8.47;6.00;;;4.50;99.90;;;;;;5066102;28;20191;-74
2020/12/25 02:47:02;;;;;;;6.27;4.60;;;4.50;99.90;;;;;;5071404;28;20445;-74
2020/12/25 02:49:28;;;;;;;14.60;5.23;;;4.50;99.90;;;;;;5075906;28;20253;-74
2020/12/25 02:51:53;;;;;;;4.63;3.83;;;4.50;99.90;;;;;;5077257;28;20643;-74
2020/12/25 02:54:19;;;;;;;8.63;4.67;;;4.40;99.90;;;;;;5072810;28;20507;-74
2020/12/25 02:56:45;;;;;;;8.93;4.20;;;4.40;99.90;;;;;;5071794;28;20253;-74
2020/12/25 02:59:11;;;;;;;8.30;3.90;;;4.40;99.90;;;;;;5070200;28;20211;-74
2020/12/25 03:01:36;;;;;;;7.70;4.07;;;4.40;99.90;;;;;;5070710;28;20441;-74
2020/12/25 03:04:02;;;;;;;8.67;3.60;;;4.40;99.90;;;;;;5072652;28;20645;-74
2020/12/25 03:06:27;;;;;;;7.50;3.83;;;4.40;99.90;;;;;;5070445;28;20190;-74
2020/12/25 03:08:53;;;;;;;4.83;3.83;;;4.40;99.90;;;;;;5071333;28;20206;-74
2020/12/25 03:11:18;;;;;;;7.17;3.90;;;4.40;99.90;;;;;;5052859;28;20274;-74
2020/12/25 03:13:44;;;;;;;7.00;3.80;;;4.40;99.90;;;;;;5076213;28;20675;-74
2020/12/25 03:16:10;;;;;;;10.67;3.50;;;4.40;99.90;;;;;;5062281;28;20201;-74
2020/12/25 03:18:35;;;;;;;8.50;4.27;;;4.40;99.90;;;;;;5074316;28;20456;-73
2020/12/25 03:21:01;;;;;;;8.83;4.10;;;4.40;99.90;;;;;;5078286;28;20220;-74
2020/12/25 03:23:26;;;;;;;7.77;3.63;;;4.40;99.90;;;;;;5071418;28;20712;-74
2020/12/25 03:25:52;;;;;;;9.10;3.43;;;4.40;99.90;;;;;;5068586;28;20191;-74
2020/12/25 03:28:17;;;;;;;5.93;3.20;;;4.40;99.90;;;;;;5069041;28;20187;-74
2020/12/25 03:30:43;;;;;;;3.87;3.57;;;4.40;99.90;;;;;;5071442;28;20588;-74
2020/12/25 03:33:09;;;;;;;4.90;3.33;;;4.30;99.90;;;;;;5074068;28;20190;-74
2020/12/25 03:35:34;;;;;;;7.90;3.57;;;4.20;99.90;;;;;;5073631;28;20282;-74
2020/12/25 03:38:00;;;;;;;9.17;3.90;;;4.20;99.90;;;;;;5057193;28;20285;-74
2020/12/25 03:40:25;;;;;;;6.80;3.30;;;4.20;99.90;;;;;;5071141;28;20195;-74
2020/12/25 03:42:51;;;;;;;7.80;3.10;;;4.20;99.90;;;;;;5054870;28;20306;-74
2020/12/25 03:45:16;;;;;;;4.70;2.90;;;4.20;99.90;;;;;;5076006;28;20222;-74
2020/12/25 03:47:42;;;;;;;3.43;3.00;;;4.20;99.90;;;;;;5071745;28;20623;-74
2020/12/25 03:50:08;;;;;;;4.27;3.50;;;4.10;99.90;;;;;;5069206;28;20190;-74
2020/12/25 03:52:33;;;;;;;4.30;3.43;;;4.10;99.90;;;;;;5055139;28;20605;-74
2020/12/25 03:54:59;;;;;;;4.23;3.30;;;4.10;99.90;;;;;;5056446;28;20269;-74
2020/12/25 03:57:24;;;;;;;10.23;3.60;;;4.10;99.90;;;;;;5069775;28;20199;-74
2020/12/25 03:59:50;;;;;;;6.13;3.97;;;4.10;99.90;;;;;;5052521;28;20237;-74
2020/12/25 04:02:15;;;;;;;4.80;3.30;;;4.00;99.90;;;;;;5078477;28;20237;-74
2020/12/25 04:04:41;;;;;;;7.70;3.53;;;4.00;99.90;;;;;;5052212;28;21561;-74
2020/12/25 04:07:06;;;;;;;6.40;3.80;;;4.00;99.90;;;;;;5069192;28;20191;-74
2020/12/25 04:09:32;;;;;;;9.70;4.70;;;4.00;99.90;;;;;;5069143;28;20218;-74
2020/12/25 04:11:57;;;;;;;6.97;4.40;;;4.00;99.90;;;;;;5071976;28;20682;-74
2020/12/25 04:14:23;;;;;;;8.57;3.50;;;4.00;99.90;;;;;;5069922;28;20194;-74
2020/12/25 04:16:48;;;;;;;6.87;3.37;;;4.00;99.90;;;;;;5050636;28;20179;-74
2020/12/25 04:19:14;;;;;;;9.57;3.80;;;4.00;99.90;;;;;;5077572;28;20304;-74
2020/12/25 04:21:40;;;;;;;10.00;3.47;;;3.90;99.90;;;;;;5069543;28;20782;-74
2020/12/25 04:24:05;;;;;;;8.17;4.00;;;3.90;99.90;;;;;;5069904;28;20274;-74
2020/12/25 04:26:31;;;;;;;11.47;3.37;;;3.90;99.90;;;;;;5052507;28;20171;-74
2020/12/25 04:28:56;;;;;;;8.07;3.80;;;3.90;99.90;;;;;;5075707;28;20237;-75
2020/12/25 04:31:27;;;;;;;9.73;3.63;;;3.90;99.90;;;;;;5052359;28;20175;-74
2020/12/25 04:33:53;;;;;;;6.97;3.10;;;4.00;99.90;;;;;;5070653;28;20179;-74
2020/12/25 04:36:19;;;;;;;4.90;3.17;;;4.00;99.90;;;;;;5070127;28;20439;-74
2020/12/25 04:38:45;;;;;;;10.00;4.80;;;4.00;99.90;;;;;;5068524;28;21140;-74
2020/12/25 04:41:11;;;;;;;6.73;3.70;;;3.90;99.90;;;;;;5069615;28;20529;-74
2020/12/25 04:43:41;;;;;;;12.17;4.30;;;3.90;99.90;;;;;;5053404;28;20456;-74
2020/12/25 04:46:09;;;;;;;8.57;4.00;;;3.90;99.90;;;;;;5068449;28;20449;-74
2020/12/25 04:48:36;;;;;;;8.63;3.70;;;3.80;99.90;;;;;;5070988;28;20444;-74
2020/12/25 04:51:02;;;;;;;9.30;3.00;;;3.80;99.90;;;;;;5069960;28;20438;-74
2020/12/25 04:53:29;;;;;;;9.73;3.60;;;3.70;99.90;;;;;;5069663;28;20819;-74
2020/12/25 04:55:55;;;;;;;7.13;3.13;;;3.70;99.90;;;;;;5050956;28;20426;-74
2020/12/25 04:58:20;;;;;;;5.27;2.70;;;3.60;99.90;;;;;;5072132;28;20468;-74
2020/12/25 05:01:04;;;;;;;5.60;2.47;;;3.60;99.90;;;;;;5073475;28;20452;-74
2020/12/25 05:03:34;;;;;;;7.60;3.47;;;3.50;99.90;;;;;;5069101;28;20195;-74
2020/12/25 05:06:14;;;;;;;6.90;3.30;;;3.40;99.90;;;;;;5070357;28;20430;-74
2020/12/25 05:08:42;;;;;;;5.97;3.33;;;3.40;99.90;;;;;;5069241;28;20428;-74
2020/12/25 05:11:09;;;;;;;9.73;2.60;;;3.40;99.90;;;;;;5070442;28;20464;-74
2020/12/25 05:13:43;;;;;;;6.80;2.50;;;3.30;99.90;;;;;;5074391;28;22104;-74
2020/12/25 05:16:09;;;;;;;9.10;3.23;;;3.30;99.90;;;;;;5052557;28;20446;-75
2020/12/25 05:18:39;;;;;;;7.00;3.50;;;3.20;99.90;;;;;;5073631;28;20461;-74
2020/12/25 05:21:09;;;;;;;9.17;3.37;;;3.20;99.90;;;;;;5069319;28;20518;-74
2020/12/25 05:23:37;;;;;;;14.13;4.00;;;3.20;99.90;;;;;;5070354;28;20783;-74
2020/12/25 05:26:04;;;;;;;13.20;4.77;;;3.20;99.90;;;;;;5069528;28;21766;-74
2020/12/25 05:28:29;;;;;;;10.33;4.97;;;3.10;99.90;;;;;;5068374;28;21008;-74
2020/12/25 05:30:59;;;;;;;6.70;3.23;;;3.10;99.90;;;;;;5051896;28;20441;-74
2020/12/25 05:33:26;;;;;;;8.63;4.27;;;3.10;99.90;;;;;;5068906;28;20211;-74
2020/12/25 05:35:54;;;;;;;12.80;6.67;;;3.10;99.90;;;;;;5051615;28;20772;-74
2020/12/25 05:38:20;;;;;;;10.50;4.83;;;3.10;99.90;;;;;;5068418;28;20472;-74
2020/12/25 05:40:45;;;;;;;13.17;7.17;;;3.10;99.90;;;;;;5068372;28;20864;-74
2020/12/25 05:43:16;;;;;;;11.10;8.60;;;3.10;99.90;;;;;;5050478;28;20958;-74
2020/12/25 05:45:42;;;;;;;12.93;7.77;;;3.10;99.90;;;;;;5076473;28;20194;-74
2020/12/25 05:48:08;;;;;;;9.80;7.80;;;3.10;99.90;;;;;;5068161;28;20434;-74
2020/12/25 05:50:35;;;;;;;21.60;12.97;;;3.10;99.90;;;;;;5072327;28;20184;-74
2020/12/25 05:53:01;;;;;;;14.73;11.50;;;3.10;99.90;;;;;;5069240;28;20436;-74
2020/12/25 05:55:27;;;;;;;16.80;11.70;;;3.10;99.90;;;;;;5050142;28;20438;-74
2020/12/25 05:57:54;;;;;;;18.43;13.77;;;3.10;99.90;;;;;;5069423;28;20503;-74
2020/12/25 06:00:23;;;;;;;19.83;12.80;;;3.10;99.90;;;;;;5051308;28;20297;-74
2020/12/25 06:02:50;;;;;;;19.70;14.20;;;3.10;99.90;;;;;;5069577;28;20502;-74
2020/12/25 06:05:19;;;;;;;26.80;15.77;;;3.10;99.90;;;;;;5067730;28;20455;-74
2020/12/25 06:07:56;;;;;;;23.20;15.83;;;3.10;99.90;;;;;;5068897;28;20434;-74
2020/12/25 06:10:25;;;;;;;22.70;14.47;;;3.10;99.90;;;;;;5067558;28;20528;-74
2020/12/25 06:12:52;;;;;;;22.47;15.30;;;3.10;99.90;;;;;;5069128;28;20451;-75
2020/12/25 06:15:27;;;;;;;22.67;14.30;;;3.10;99.90;;;;;;5073968;28;20467;-74
2020/12/25 06:18:01;;;;;;;19.43;13.90;;;3.20;99.90;;;;;;5072768;28;20437;-74
2020/12/25 06:20:31;;;;;;;18.50;12.60;;;3.30;99.90;;;;;;5074561;28;20463;-74
2020/12/25 06:22:56;;;;;;;17.00;13.30;;;3.30;99.90;;;;;;5071824;28;20497;-74
2020/12/25 06:25:24;;;;;;;16.63;12.93;;;3.30;99.90;;;;;;5071200;28;20445;-74
2020/12/25 06:27:56;;;;;;;21.23;12.43;;;3.30;99.90;;;;;;5070537;28;20325;-74
2020/12/25 06:30:29;;;;;;;26.40;15.27;;;3.40;99.90;;;;;;5073815;28;20934;-74
2020/12/25 06:32:57;;;;;;;18.00;11.70;;;3.40;99.90;;;;;;5071048;28;20839;-74
2020/12/25 06:35:38;;;;;;;16.00;10.50;;;3.50;99.90;;;;;;5073232;28;22112;-74
2020/12/25 06:38:15;;;;;;;15.83;10.93;;;3.50;99.90;;;;;;5071739;28;20426;-74
2020/12/25 06:40:41;;;;;;;17.00;10.50;;;3.50;99.90;;;;;;5071583;28;20991;-74
2020/12/25 06:43:19;;;;;;;20.03;11.70;;;3.50;99.90;;;;;;5076646;28;20437;-74
2020/12/25 06:45:53;;;;;;;17.13;8.50;;;3.50;99.90;;;;;;5074252;28;20444;-74
2020/12/25 06:48:21;;;;;;;13.80;10.00;;;3.50;99.90;;;;;;5072338;28;20912;-74
2020/12/25 06:50:52;;;;;;;15.57;8.33;;;3.60;99.90;;;;;;5053028;28;20521;-74
2020/12/25 06:53:43;;;;;;;18.63;9.40;;;3.60;99.90;;;;;;5071332;28;20449;-74
2020/12/25 06:56:16;;;;;;;22.30;9.27;;;3.70;99.90;;;;;;5071690;28;20834;-74
2020/12/25 06:58:47;;;;;;;9.30;7.20;;;3.70;99.90;;;;;;5071576;28;20466;-74
2020/12/25 07:01:15;;;;;;;11.67;7.30;;;3.70;99.90;;;;;;5055599;28;20433;-74
2020/12/25 07:03:41;;;;;;;16.00;7.37;;;3.80;99.90;;;;;;5071433;28;20440;-74
2020/12/25 07:06:09;;;;;;;11.00;6.33;;;3.80;99.90;;;;;;5070506;28;20442;-74
2020/12/25 07:08:44;;;;;;;15.43;7.53;;;3.80;99.90;;;;;;5054168;28;20974;-74
2020/12/25 07:11:10;;;;;;;14.83;7.03;;;3.80;99.90;;;;;;5071554;28;20493;-74
2020/12/25 07:13:37;;;;;;;15.53;7.60;;;3.80;99.90;;;;;;5075255;28;21052;-74
2020/12/25 07:16:05;;;;;;;16.30;8.77;;;3.90;99.90;;;;;;5075560;28;20561;-75
2020/12/25 07:18:31;;;;;;;12.33;6.47;;;3.90;99.90;;;;;;5073019;28;20465;-75
2020/12/25 07:20:58;;;;;;;12.20;6.17;;;3.90;99.90;;;;;;5072583;28;20857;-74
2020/12/25 07:23:24;;;;;;;11.43;6.90;;;3.90;99.90;;;;;;5071045;28;20789;-75
2020/12/25 07:25:50;;;;;;;11.57;7.60;;;3.80;99.90;;;;;;5051030;28;20437;-75
2020/12/25 07:28:15;;;;;;;15.97;7.90;;;3.80;99.90;;;;;;5081312;28;20429;-75
2020/12/25 07:30:41;;;;;;;14.40;9.57;;;3.90;99.90;;;;;;5070747;28;20236;-74
2020/12/25 07:33:07;;;;;;;10.77;7.80;;;3.90;99.90;;;;;;5070745;28;20179;-74
2020/12/25 07:35:33;;;;;;;17.60;7.97;;;3.90;99.90;;;;;;5070469;28;20187;-74
2020/12/25 07:37:58;;;;;;;17.70;9.13;;;3.90;99.90;;;;;;5069824;28;20438;-74
2020/12/25 07:40:24;;;;;;;12.93;8.93;;;3.90;99.90;;;;;;5072826;28;20994;-75
2020/12/25 07:42:51;;;;;;;17.03;8.53;;;3.90;99.90;;;;;;5071164;28;20730;-74
2020/12/25 07:45:19;;;;;;;19.03;8.93;;;4.00;99.90;;;;;;5076256;28;20461;-75
2020/12/25 07:47:49;;;;;;;14.37;8.40;;;4.00;99.90;;;;;;5052307;28;20187;-74
2020/12/25 07:50:14;;;;;;;15.53;9.00;;;4.00;99.90;;;;;;5075479;28;20440;-74
2020/12/25 07:52:42;;;;;;;11.83;8.17;;;4.10;99.90;;;;;;5068923;28;20448;-74
2020/12/25 07:55:09;;;;;;;14.10;9.10;;;4.10;99.90;;;;;;5071660;28;20240;-74
2020/12/25 07:57:37;;;;;;;10.50;8.87;;;4.10;99.90;;;;;;5069779;28;20434;-74
2020/12/25 08:00:04;;;;;;;11.57;9.60;;;4.10;99.90;;;;;;5070207;28;20492;-75
2020/12/25 08:02:31;;;;;;;16.10;9.87;;;4.10;99.90;;;;;;5071132;28;20449;-74
2020/12/25 08:04:57;;;;;;;15.63;10.50;;;4.10;99.90;;;;;;5069216;28;20450;-75
2020/12/25 08:07:23;;;;;;;14.57;9.97;;;4.10;99.90;;;;;;5053906;28;20449;-74
2020/12/25 08:09:50;;;;;;;15.23;10.50;;;4.10;99.90;;;;;;5071463;28;20237;-75
2020/12/25 08:12:16;;;;;;;14.80;10.13;;;4.10;99.90;;;;;;5069319;28;20194;-74
2020/12/25 08:14:43;;;;;;;12.40;8.93;;;4.10;99.90;;;;;;5072033;28;20520;-74
2020/12/25 08:17:09;;;;;;;13.83;9.37;;;4.10;99.90;;;;;;5069072;28;20931;-74
2020/12/25 08:19:35;;;;;;;12.80;9.10;;;4.10;99.90;;;;;;5073524;28;20481;-74
2020/12/25 08:22:05;;;;;;;11.33;9.30;;;4.10;99.90;;;;;;5056359;28;20440;-74
2020/12/25 08:24:30;;;;;;;11.17;8.73;;;4.10;99.90;;;;;;5052444;28;20550;-75
2020/12/25 08:27:01;;;;;;;10.40;9.30;;;4.10;99.90;;;;;;5056818;28;20519;-74
2020/12/25 08:29:29;;;;;;;9.73;8.73;;;4.10;99.90;;;;;;5072469;28;20206;-74
2020/12/25 08:32:05;;;;;;;16.43;8.37;;;4.10;99.90;;;;;;5050129;28;20801;-75
2020/12/25 08:34:30;;;;;;;9.60;8.57;;;4.00;99.90;;;;;;5069610;28;21009;-74
2020/12/25 08:36:57;;;;;;;12.77;7.73;;;4.00;99.90;;;;;;5070486;28;20532;-75
2020/12/25 08:39:27;;;;;;;8.80;7.30;;;3.90;99.90;;;;;;5072463;28;20211;-74
2020/12/25 08:41:55;;;;;;;9.70;6.63;;;3.90;99.90;;;;;;5055945;28;20452;-75
2020/12/25 08:44:21;;;;;;;9.27;6.03;;;3.90;99.90;;;;;;5074829;28;20455;-74
2020/12/25 08:46:47;;;;;;;8.27;5.90;;;3.80;99.90;;;;;;5069637;28;20433;-74
2020/12/25 08:49:23;;;;;;;11.83;5.20;;;3.80;99.90;;;;;;5074419;28;20439;-74
2020/12/25 08:51:49;;;;;;;7.30;4.53;;;3.80;99.90;;;;;;5071787;28;20929;-74
2020/12/25 08:54:24;;;;;;;9.23;5.33;;;3.70;99.90;;;;;;5073897;28;20515;-74
2020/12/25 08:56:50;;;;;;;6.10;4.90;;;3.70;99.90;;;;;;5051613;28;20199;-74
2020/12/25 08:59:20;;;;;;;8.77;4.90;;;3.70;99.90;;;;;;5052458;28;20461;-74
2020/12/25 09:01:47;;;;;;;7.07;4.50;;;3.60;99.90;;;;;;5069546;28;20257;-74
2020/12/25 09:04:22;;;;;;;4.40;3.70;;;3.60;99.90;;;;;;5050302;28;20450;-74
2020/12/25 09:06:51;;;;;;;10.47;4.87;;;3.60;99.90;;;;;;5070264;28;20894;-75
2020/12/25 09:09:17;;;;;;;6.47;4.40;;;3.60;99.90;;;;;;5069978;28;20803;-74
2020/12/25 09:11:43;;;;;;;6.47;4.60;;;3.60;99.90;;;;;;5051391;28;20532;-74
2020/12/25 09:14:08;;;;;;;9.80;4.53;;;3.60;99.90;;;;;;5070284;28;20887;-74
2020/12/25 09:16:34;;;;;;;5.60;4.60;;;3.60;99.90;;;;;;5050784;28;20282;-74
2020/12/25 09:19:03;;;;;;;10.63;5.80;;;3.60;99.90;;;;;;5076517;28;20931;-74
2020/12/25 09:21:28;;;;;;;7.53;4.23;;;3.60;99.90;;;;;;5074087;28;20663;-74
2020/12/25 09:23:57;;;;;;;5.57;4.00;;;3.70;99.90;;;;;;5068748;28;20441;-74
2020/12/25 09:26:22;;;;;;;7.80;4.47;;;3.70;99.90;;;;;;5051058;28;20195;-75
2020/12/25 09:28:48;;;;;;;7.63;4.30;;;3.70;99.90;;;;;;5075502;28;20511;-74
2020/12/25 09:31:14;;;;;;;11.43;6.60;;;3.80;99.90;;;;;;5052709;28;20984;-74
2020/12/25 09:33:41;;;;;;;7.40;5.53;;;3.80;99.90;;;;;;5053475;28;20712;-74
2020/12/25 09:36:07;;;;;;;10.00;6.70;;;3.90;99.90;;;;;;5070889;28;20333;-75
2020/12/25 09:38:33;;;;;;;10.60;6.07;;;3.90;99.90;;;;;;5068671;28;20469;-74
2020/12/25 09:41:00;;;;;;;10.90;7.57;;;4.00;99.90;;;;;;5050621;28;20446;-74
2020/12/25 09:43:28;;;;;;;10.47;7.20;;;4.00;99.90;;;;;;5069535;28;20441;-74
2020/12/25 09:45:54;;;;;;;13.53;8.80;;;4.10;99.90;;;;;;5066244;28;20452;-75
2020/12/25 09:48:19;;;;;;;15.20;9.90;;;4.30;99.90;;;;;;5073576;28;20796;-74
2020/12/25 09:50:45;;;;;;;13.30;11.20;;;4.30;99.90;;;;;;5073275;28;20463;-75
2020/12/25 09:53:10;;;;;;;16.17;12.00;;;4.40;99.90;;;;;;5075137;28;20191;-74
2020/12/25 09:55:38;;;;;;;15.73;12.97;;;4.60;99.90;;;;;;5071095;28;20222;-74
2020/12/25 09:58:04;;;;;;;15.67;11.30;;;4.80;99.90;;;;;;5073917;28;20179;-75
2020/12/25 10:00:30;;;;;;;14.50;12.50;;;4.90;99.90;;;;;;5075185;28;20945;-75
2020/12/25 10:02:56;;;;;;;15.93;11.20;;;5.00;99.90;;;;;;5071236;28;20732;-75
2020/12/25 10:05:21;;;;;;;11.23;10.23;;;5.10;99.90;;;;;;5077011;28;20203;-74
2020/12/25 10:07:48;;;;;;;14.33;9.83;;;5.20;99.90;;;;;;5053667;28;20238;-75
2020/12/25 10:10:14;;;;;;;12.83;9.00;;;5.20;99.90;;;;;;5054168;28;20549;-75
2020/12/25 10:12:40;;;;;;;14.50;9.60;;;5.30;99.90;;;;;;5054358;28;20425;-75
2020/12/25 10:15:05;;;;;;;8.80;7.37;;;5.40;99.90;;;;;;5074759;28;20430;-74
2020/12/25 10:17:31;;;;;;;9.23;7.23;;;5.50;99.90;;;;;;5054191;28;20184;-75
2020/12/25 10:19:56;;;;;;;12.60;8.30;;;5.50;99.90;;;;;;5079603;28;20275;-75
2020/12/25 10:22:22;;;;;;;10.23;6.60;;;5.60;99.90;;;;;;5053986;28;20258;-75
2020/12/25 10:24:47;;;;;;;9.83;6.90;;;5.60;99.90;;;;;;5071480;28;20663;-75
2020/12/25 10:27:13;;;;;;;13.47;7.23;;;5.70;99.90;;;;;;5071950;28;20207;-75
2020/12/25 10:29:39;;;;;;;9.03;6.27;;;5.70;99.90;;;;;;5055082;28;20180;-75
2020/12/25 10:32:04;;;;;;;14.60;6.77;;;5.70;99.90;;;;;;5074652;28;20244;-75
2020/12/25 10:34:30;;;;;;;7.70;5.73;;;5.70;99.90;;;;;;5055986;28;20280;-75
2020/12/25 10:36:55;;;;;;;9.77;7.27;;;5.70;99.90;;;;;;5056215;28;20586;-75
2020/12/25 10:39:20;;;;;;;13.20;7.83;;;5.80;99.90;;;;;;5054117;28;20579;-75
2020/12/25 10:41:46;;;;;;;12.57;9.47;;;5.80;99.90;;;;;;5071690;28;20192;-75
2020/12/25 10:44:11;;;;;;;18.70;7.60;;;5.70;99.90;;;;;;5077677;28;20327;-75
2020/12/25 10:46:37;;;;;;;15.40;10.07;;;5.70;99.90;;;;;;5072627;28;20201;-75
2020/12/25 10:49:03;;;;;;;12.20;8.70;;;5.60;99.90;;;;;;5077048;28;20229;-75
2020/12/25 10:51:28;;;;;;;12.43;8.10;;;5.50;99.90;;;;;;5054222;28;20278;-75
2020/12/25 10:53:54;;;;;;;9.70;8.00;;;5.50;99.90;;;;;;5071786;28;20187;-75
2020/12/25 10:56:27;;;;;;;9.03;7.97;;;5.40;99.90;;;;;;5052319;28;20652;-75
2020/12/25 10:58:53;;;;;;;8.70;7.50;;;5.30;99.90;;;;;;5071904;28;20664;-75
2020/12/25 11:01:29;;;;;;;8.33;7.43;;;5.30;99.90;;;;;;5071958;28;21258;-75
2020/12/25 11:03:56;;;;;;;8.90;7.57;;;5.20;99.90;;;;;;5075875;28;20437;-75
2020/12/25 11:06:31;;;;;;;8.93;8.03;;;5.10;99.90;;;;;;5072962;28;20438;-75
2020/12/25 11:08:57;;;;;;;8.77;7.20;;;5.10;99.90;;;;;;5070639;28;20452;-75
2020/12/25 11:11:27;;;;;;;12.23;6.90;;;5.10;99.90;;;;;;5070961;28;20437;-75
2020/12/25 11:13:53;;;;;;;9.67;7.13;;;5.10;99.90;;;;;;5069454;28;20448;-75
2020/12/25 11:16:27;;;;;;;16.73;8.27;;;5.10;99.90;;;;;;5070190;28;20430;-75
2020/12/25 11:18:54;;;;;;;9.87;6.80;;;5.10;99.90;;;;;;5075901;28;20472;-75
2020/12/25 11:21:25;;;;;;;13.17;8.30;;;5.10;99.90;;;;;;5068434;28;20993;-75
2020/12/25 11:23:51;;;;;;;12.37;7.90;;;5.10;99.90;;;;;;5074491;28;20441;-74
2020/12/25 11:26:25;;;;;;;12.83;8.80;;;5.10;99.90;;;;;;5070936;28;20503;-74
2020/12/25 11:28:52;;;;;;;5.80;4.20;;;5.20;99.90;;;;;;5072461;28;20440;-74
2020/12/25 11:31:19;;;;;;;7.50;6.33;;;5.20;99.90;;;;;;5054351;28;20442;-74
2020/12/25 11:33:48;;;;;;;6.80;4.80;;;5.20;99.90;;;;;;5053257;28;20435;-75
2020/12/25 11:36:25;;;;;;;9.13;5.30;;;5.20;99.90;;;;;;5068660;28;20448;-75
2020/12/25 11:38:51;;;;;;;9.20;4.03;;;5.30;99.90;;;;;;5069440;28;20480;-75
2020/12/25 11:41:19;;;;;;;6.63;3.47;;;5.40;99.90;;;;;;5052066;28;20449;-75
2020/12/25 11:43:47;;;;;;;6.53;4.33;;;5.50;99.90;;;;;;5078612;28;20867;-75
2020/12/25 11:46:13;;;;;;;6.03;3.37;;;5.60;99.90;;;;;;5054310;28;20922;-75
2020/12/25 11:48:39;;;;;;;7.60;5.20;;;5.70;99.90;;;;;;5074653;28;20774;-75
2020/12/25 11:51:05;;;;;;;9.47;3.83;;;5.80;99.90;;;;;;5075273;28;20438;-75
2020/12/25 11:53:31;;;;;;;7.77;3.60;;;5.90;99.90;;;;;;5053340;28;20306;-75
2020/12/25 11:55:57;;;;;;;11.30;3.13;;;5.90;99.90;;;;;;5050723;28;20556;-75
2020/12/25 11:58:25;;;;;;;8.20;2.90;;;5.90;99.90;;;;;;5051332;28;20184;-74
2020/12/25 12:00:51;;;;;;;8.23;2.83;;;5.90;99.90;;;;;;5071346;28;20192;-75
2020/12/25 12:03:17;;;;;;;4.73;2.50;;;5.90;99.90;;;;;;5071716;28;20801;-74
2020/12/25 12:05:43;;;;;;;10.90;3.97;;;5.90;99.90;;;;;;5069870;28;20186;-75
2020/12/25 12:08:10;;;;;;;8.73;2.77;;;5.90;99.90;;;;;;5069300;28;20437;-75
2020/12/25 12:10:36;;;;;;;10.27;4.00;;;6.00;99.90;;;;;;5071347;28;20445;-75
2020/12/25 12:13:03;;;;;;;6.33;3.00;;;6.00;99.90;;;;;;5069430;28;20445;-75
2020/12/25 12:15:29;;;;;;;14.20;2.97;;;6.10;99.90;;;;;;5056448;28;20252;-75
2020/12/25 12:17:55;;;;;;;6.80;2.70;;;6.20;99.90;;;;;;5070780;28;20436;-75
2020/12/25 12:20:20;;;;;;;6.97;2.90;;;6.20;99.90;;;;;;5075791;28;20470;-75
2020/12/25 12:22:46;;;;;;;4.63;2.83;;;6.30;99.90;;;;;;5069867;28;20191;-75
2020/12/25 12:25:11;;;;;;;4.20;3.00;;;6.30;99.90;;;;;;5069847;28;20191;-74
2020/12/25 12:27:37;;;;;;;6.13;2.40;;;6.30;99.90;;;;;;5078134;28;20282;-75
2020/12/25 12:30:08;;;;;;;5.50;2.60;;;6.30;99.90;;;;;;5068718;28;20269;-75
2020/12/25 12:32:33;;;;;;;10.83;5.23;;;6.20;99.90;;;;;;5070240;28;20194;-75
2020/12/25 12:34:59;;;;;;;6.93;2.97;;;6.10;99.90;;;;;;5068982;28;20442;-75
2020/12/25 12:37:24;;;;;;;9.60;3.80;;;6.10;99.90;;;;;;5051572;28;20544;-75
2020/12/25 12:39:50;;;;;;;10.30;3.23;;;6.10;99.90;;;;;;5069911;28;20322;-75
2020/12/25 12:42:15;;;;;;;5.67;2.60;;;6.10;99.90;;;;;;5074264;28;20233;-75
2020/12/25 12:44:41;;;;;;;4.87;2.60;;;6.10;99.90;;;;;;5074535;28;20652;-74
2020/12/25 12:47:06;;;;;;;6.43;3.40;;;6.10;99.90;;;;;;5070048;28;20179;-75
2020/12/25 12:49:32;;;;;;;7.93;3.50;;;6.10;99.90;;;;;;5078374;28;20188;-75